Time;durP1;ratioP1;P1;durP2;ratioP2;P2;SDS_P1;SDS_P2;PMS_P1;PMS_P2;Temp;Humidity;BMP_temperature;BMP_pressure;BME280_temperature;BME280_humidity;BME280_pressure;Samples;Min_cycle;Max_cycle;Signal;HPM_P1;HPM_P2
2022/05/14 00:01:02;;;;;;;4.28;1.17;;;10.70;93.20;;;;;;4985481;28;20111;-85
2022/05/14 00:03:29;;;;;;;2.63;1.10;;;10.70;93.60;;;;;;4971693;28;20560;-88
2022/05/14 00:05:58;;;;;;;1.90;1.05;;;10.60;94.10;;;;;;5000780;28;20061;-84
2022/05/14 00:08:28;;;;;;;2.10;1.35;;;10.60;94.10;;;;;;4964981;28;20058;-84
2022/05/14 00:13:41;;;;;;;2.65;1.40;;;10.40;95.00;;;;;;4991962;28;20034;-86
2022/05/14 00:16:08;;;;;;;1.77;1.30;;;10.20;95.00;;;;;;4993441;28;20590;-88
2022/05/14 00:18:34;;;;;;;1.92;1.50;;;10.20;95.30;;;;;;4976170;28;20034;-87
2022/05/14 00:21:00;;;;;;;1.95;1.27;;;10.10;95.80;;;;;;4989739;28;20034;-86
2022/05/14 00:23:27;;;;;;;3.80;1.20;;;10.10;96.40;;;;;;4985410;28;20092;-86
2022/05/14 00:25:53;;;;;;;3.15;1.52;;;10.10;96.40;;;;;;4993145;28;20046;-88
2022/05/14 00:28:19;;;;;;;1.65;1.20;;;10.10;96.80;;;;;;4990659;28;20047;-87
2022/05/14 00:30:46;;;;;;;3.95;1.40;;;10.10;97.10;;;;;;4968665;28;20396;-87
2022/05/14 00:33:12;;;;;;;1.67;1.10;;;10.10;96.70;;;;;;4992055;28;20034;-86
2022/05/14 00:35:38;;;;;;;3.15;1.38;;;10.20;96.50;;;;;;4960252;28;20089;-86
2022/05/14 00:38:05;;;;;;;1.65;1.23;;;10.20;96.00;;;;;;4987836;28;20149;-86
2022/05/14 00:40:35;;;;;;;2.38;1.10;;;10.20;96.70;;;;;;4972394;28;20042;-88
2022/05/14 00:43:01;;;;;;;2.60;1.00;;;10.30;96.60;;;;;;4960362;28;20077;-86
2022/05/14 00:45:28;;;;;;;3.38;1.85;;;10.30;97.00;;;;;;4990161;28;20038;-86
2022/05/14 00:47:58;;;;;;;1.50;1.27;;;10.30;97.10;;;;;;4998398;28;20469;-86
2022/05/14 00:50:47;;;;;;;1.98;1.45;;;10.30;97.00;;;;;;4985174;28;20034;-88
2022/05/14 00:53:20;;;;;;;2.38;1.33;;;10.20;97.00;;;;;;4958387;28;20048;-86
2022/05/14 00:55:52;;;;;;;1.58;1.08;;;10.20;97.60;;;;;;4988944;28;20026;-87
2022/05/14 00:58:36;;;;;;;2.20;1.02;;;10.10;97.80;;;;;;4992685;28;20554;-87
2022/05/14 01:01:03;;;;;;;2.47;1.17;;;10.10;98.30;;;;;;4959756;28;20495;-86
2022/05/14 01:03:29;;;;;;;2.60;1.50;;;10.10;97.50;;;;;;4981261;28;20045;-86
2022/05/14 01:05:57;;;;;;;3.20;0.98;;;10.00;98.00;;;;;;4981178;28;20023;-86
2022/05/14 01:08:23;;;;;;;2.05;1.00;;;10.00;97.90;;;;;;4990642;28;20037;-86
2022/05/14 01:10:49;;;;;;;2.58;1.20;;;10.00;97.90;;;;;;4940879;28;20030;-87
2022/05/14 01:13:15;;;;;;;3.17;1.10;;;9.90;98.10;;;;;;4977111;28;20026;-87
2022/05/14 01:15:45;;;;;;;2.00;1.23;;;9.90;98.90;;;;;;4986297;28;20031;-86
2022/05/14 01:18:11;;;;;;;1.55;1.10;;;9.90;99.40;;;;;;5004763;28;20584;-86
2022/05/14 01:20:38;;;;;;;2.13;1.35;;;9.90;98.90;;;;;;4958889;28;20030;-86
2022/05/14 01:23:29;;;;;;;4.47;1.30;;;9.80;99.90;;;;;;4999944;28;20030;-86
2022/05/14 01:26:28;;;;;;;3.30;1.25;;;9.90;99.90;;;;;;4989088;28;20121;-89
2022/05/14 01:28:59;;;;;;;1.17;0.98;;;9.90;99.40;;;;;;4975462;28;20041;-86
2022/05/14 01:31:27;;;;;;;4.97;1.20;;;10.00;99.30;;;;;;4974607;28;20632;-86
2022/05/14 01:33:54;;;;;;;1.92;1.25;;;10.00;98.30;;;;;;4957631;28;20026;-86
2022/05/14 01:36:20;;;;;;;1.23;1.00;;;9.90;97.90;;;;;;4985703;28;20034;-86
2022/05/14 01:38:46;;;;;;;1.23;1.00;;;9.90;99.00;;;;;;5006979;28;20025;-86
2022/05/14 01:41:13;;;;;;;3.25;1.20;;;9.90;99.00;;;;;;4960057;28;20373;-86
2022/05/14 01:43:39;;;;;;;2.80;1.65;;;9.90;99.90;;;;;;4982438;28;20049;-87
2022/05/14 01:46:05;;;;;;;1.45;1.00;;;9.80;99.90;;;;;;4995920;28;20023;-86
2022/05/14 01:48:31;;;;;;;3.67;1.42;;;9.70;99.90;;;;;;4966162;28;20042;-86
2022/05/14 01:50:59;;;;;;;2.45;1.20;;;9.60;99.90;;;;;;4998017;28;20042;-85
2022/05/14 01:53:24;;;;;;;1.83;1.10;;;9.60;99.90;;;;;;4959455;28;20039;-86
2022/05/14 01:55:51;;;;;;;1.90;1.20;;;9.50;99.90;;;;;;4971928;28;20442;-86
2022/05/14 01:58:36;;;;;;;1.67;1.55;;;9.50;99.90;;;;;;4999198;28;20030;-86
2022/05/14 02:01:25;;;;;;;2.28;1.10;;;9.50;99.90;;;;;;4958105;28;20069;-86
2022/05/14 02:03:54;;;;;;;3.30;1.30;;;9.40;99.90;;;;;;4973394;28;20189;-86
2022/05/14 02:06:21;;;;;;;2.15;1.38;;;9.40;99.90;;;;;;4977980;28;20092;-86
2022/05/14 02:08:47;;;;;;;1.77;1.25;;;9.40;99.90;;;;;;4973487;28;20034;-86
2022/05/14 02:11:13;;;;;;;3.40;1.20;;;9.40;99.90;;;;;;4925803;28;20031;-86
2022/05/14 02:13:42;;;;;;;2.38;1.30;;;9.40;99.90;;;;;;4998157;28;20097;-86
2022/05/14 02:16:08;;;;;;;1.73;1.45;;;9.40;99.90;;;;;;4977889;28;20034;-88
2022/05/14 02:18:35;;;;;;;1.25;1.00;;;9.50;99.90;;;;;;5000110;28;20034;-87
2022/05/14 02:21:02;;;;;;;2.70;1.20;;;9.50;99.90;;;;;;4978241;28;20022;-87
2022/05/14 02:23:28;;;;;;;1.60;1.15;;;9.50;99.90;;;;;;4951604;28;20679;-86
2022/05/14 02:25:54;;;;;;;3.88;1.30;;;9.60;99.90;;;;;;4986579;28;20033;-86
2022/05/14 02:28:20;;;;;;;3.08;1.15;;;9.60;99.90;;;;;;4989292;28;20034;-86
2022/05/14 02:30:46;;;;;;;1.60;1.50;;;9.60;99.90;;;;;;4997288;28;20031;-86
2022/05/14 02:33:13;;;;;;;2.75;1.20;;;9.60;99.90;;;;;;4974228;28;20037;-86
2022/05/14 02:35:39;;;;;;;2.67;1.25;;;9.50;99.90;;;;;;4998039;28;20030;-86
2022/05/14 02:38:05;;;;;;;2.35;1.50;;;9.40;99.90;;;;;;4967037;28;21247;-86
2022/05/14 02:40:31;;;;;;;1.30;1.20;;;9.30;99.90;;;;;;4982310;28;20057;-86
2022/05/14 02:42:57;;;;;;;4.32;1.55;;;9.20;99.90;;;;;;4977265;28;20023;-86
2022/05/14 02:45:23;;;;;;;1.67;1.40;;;9.20;99.90;;;;;;4976494;28;20404;-87
2022/05/14 02:47:50;;;;;;;4.63;1.98;;;9.10;99.90;;;;;;4982465;28;20030;-87
2022/05/14 02:50:16;;;;;;;2.67;1.50;;;9.10;99.90;;;;;;5004657;28;20034;-88
2022/05/14 02:52:42;;;;;;;3.17;1.40;;;9.00;99.90;;;;;;4945226;28;20401;-86
2022/05/14 02:55:09;;;;;;;5.75;1.90;;;9.00;99.90;;;;;;4976453;28;20033;-86
2022/05/14 02:57:35;;;;;;;6.05;1.80;;;9.00;99.90;;;;;;5004320;28;20026;-86
2022/05/14 03:00:06;;;;;;;1.80;1.40;;;9.00;99.90;;;;;;5013055;28;20037;-86
2022/05/14 03:02:32;;;;;;;2.42;1.42;;;8.90;99.90;;;;;;4989837;28;20042;-86
2022/05/14 03:04:58;;;;;;;1.92;1.70;;;8.90;99.90;;;;;;4978705;28;20022;-86
2022/05/14 03:07:23;;;;;;;3.60;1.63;;;8.80;99.90;;;;;;4972109;28;20056;-86
2022/05/14 03:09:49;;;;;;;1.88;1.60;;;8.80;99.90;;;;;;4957708;28;20035;-86
2022/05/14 03:12:15;;;;;;;2.70;1.63;;;8.80;99.90;;;;;;4970732;28;20470;-86
2022/05/14 03:14:42;;;;;;;2.80;1.88;;;8.90;99.90;;;;;;4977030;28;20037;-86
2022/05/14 03:17:09;;;;;;;1.55;1.45;;;8.80;99.90;;;;;;4989253;28;20031;-86
2022/05/14 03:19:35;;;;;;;4.57;1.70;;;8.80;99.90;;;;;;4981278;28;20030;-87
2022/05/14 03:22:02;;;;;;;3.35;1.70;;;8.70;99.90;;;;;;4986432;28;20540;-87
2022/05/14 03:24:28;;;;;;;3.85;1.83;;;8.70;99.90;;;;;;4977623;28;20488;-87
2022/05/14 03:26:53;;;;;;;3.75;1.50;;;8.70;99.90;;;;;;4978541;28;20042;-86
2022/05/14 03:29:20;;;;;;;1.67;1.15;;;8.80;99.90;;;;;;4958943;28;20046;-86
2022/05/14 03:31:47;;;;;;;1.33;1.10;;;8.80;99.90;;;;;;4944020;28;20488;-86
2022/05/14 03:34:13;;;;;;;1.90;1.40;;;8.90;99.90;;;;;;4983688;28;20389;-86
2022/05/14 03:36:41;;;;;;;2.17;1.60;;;8.90;99.90;;;;;;5006374;28;20116;-87
2022/05/14 03:39:08;;;;;;;3.03;1.60;;;8.90;99.90;;;;;;4999721;28;20026;-85
2022/05/14 03:41:34;;;;;;;3.92;1.58;;;8.90;99.90;;;;;;4994589;28;20026;-85
2022/05/14 03:44:01;;;;;;;2.90;1.50;;;8.90;99.90;;;;;;4999967;28;20489;-84
2022/05/14 03:46:27;;;;;;;2.92;1.20;;;8.90;99.90;;;;;;4983013;28;20022;-84
2022/05/14 03:48:53;;;;;;;2.03;1.42;;;8.90;99.90;;;;;;4992981;28;20022;-85
2022/05/14 03:51:19;;;;;;;1.95;1.30;;;8.90;99.90;;;;;;5009056;28;20045;-84
2022/05/14 03:53:47;;;;;;;2.25;1.35;;;9.00;99.90;;;;;;4977436;28;20027;-85
2022/05/14 03:56:13;;;;;;;1.20;1.10;;;9.00;99.90;;;;;;4970414;28;20037;-85
2022/05/14 03:58:39;;;;;;;2.75;1.40;;;9.00;99.90;;;;;;4975524;28;20030;-85
2022/05/14 04:01:06;;;;;;;3.33;1.25;;;8.90;99.90;;;;;;4990996;28;20027;-86
2022/05/14 04:03:34;;;;;;;5.75;1.55;;;9.00;99.90;;;;;;4973408;28;20050;-84
2022/05/14 04:06:01;;;;;;;1.88;1.58;;;8.90;99.90;;;;;;4980318;28;20573;-84
2022/05/14 04:08:27;;;;;;;2.70;1.30;;;8.90;99.90;;;;;;4955567;28;20125;-84
2022/05/14 04:10:53;;;;;;;1.98;1.30;;;8.80;99.90;;;;;;4974058;28;20038;-85
2022/05/14 04:13:19;;;;;;;1.38;1.27;;;8.80;99.90;;;;;;4961780;28;20039;-84
2022/05/14 04:15:44;;;;;;;2.38;1.45;;;8.80;99.90;;;;;;4948022;28;20121;-85
2022/05/14 04:18:10;;;;;;;2.22;1.33;;;8.80;99.90;;;;;;4973617;28;20112;-83
2022/05/14 04:20:37;;;;;;;5.22;1.45;;;8.70;99.90;;;;;;4959539;28;20134;-85
2022/05/14 04:23:07;;;;;;;4.00;1.48;;;8.70;99.90;;;;;;4955420;28;20424;-85
2022/05/14 04:25:33;;;;;;;1.95;1.20;;;8.70;99.90;;;;;;4969277;28;20035;-86
2022/05/14 04:27:59;;;;;;;1.05;1.00;;;8.70;99.90;;;;;;5004136;28;20392;-85
2022/05/14 04:30:26;;;;;;;1.88;1.35;;;8.90;99.90;;;;;;4965840;28;20062;-85
2022/05/14 04:32:52;;;;;;;1.80;1.35;;;8.90;99.90;;;;;;4957916;28;20066;-86
2022/05/14 04:35:20;;;;;;;1.27;1.00;;;9.00;99.90;;;;;;4961049;28;20072;-85
2022/05/14 04:37:47;;;;;;;2.03;1.35;;;9.00;99.90;;;;;;5004380;28;20232;-86
2022/05/14 04:40:13;;;;;;;3.95;1.40;;;9.20;99.90;;;;;;4957149;28;20030;-86
2022/05/14 04:42:40;;;;;;;2.42;1.40;;;9.20;99.90;;;;;;4959079;28;20049;-85
2022/05/14 04:45:08;;;;;;;1.70;1.27;;;9.20;99.90;;;;;;4957565;28;20523;-85
2022/05/14 04:47:35;;;;;;;2.47;1.60;;;9.30;99.90;;;;;;4977796;28;20052;-84
2022/05/14 04:50:01;;;;;;;2.65;1.33;;;9.30;99.90;;;;;;4985238;28;20519;-85
2022/05/14 04:52:26;;;;;;;3.35;1.38;;;9.40;99.90;;;;;;4974243;28;20066;-84
2022/05/14 04:54:52;;;;;;;2.53;1.25;;;9.40;99.90;;;;;;4973105;28;20035;-84
2022/05/14 04:57:18;;;;;;;1.23;1.13;;;9.50;99.90;;;;;;4981899;28;20034;-84
2022/05/14 04:59:44;;;;;;;1.90;1.33;;;9.60;99.90;;;;;;4979361;28;20453;-85
2022/05/14 05:04:55;;;;;;;2.17;1.55;;;9.60;99.90;;;;;;4978291;28;20112;-85
2022/05/14 05:07:22;;;;;;;2.58;1.73;;;9.60;99.90;;;;;;4974690;28;20053;-85
2022/05/14 05:09:49;;;;;;;2.75;1.55;;;9.60;99.90;;;;;;4989401;28;20039;-85
2022/05/14 05:12:15;;;;;;;1.98;1.52;;;9.70;99.90;;;;;;4973241;28;20560;-85
2022/05/14 05:14:41;;;;;;;2.42;1.50;;;9.80;99.90;;;;;;4971358;28;20513;-86
2022/05/14 05:17:07;;;;;;;1.30;1.20;;;9.90;99.90;;;;;;4957105;28;20417;-85
2022/05/14 05:19:34;;;;;;;4.13;1.48;;;10.10;99.90;;;;;;4968318;28;20029;-85
2022/05/14 05:21:59;;;;;;;3.08;1.85;;;10.20;99.90;;;;;;4993446;28;20034;-85
2022/05/14 05:24:25;;;;;;;1.52;1.30;;;10.30;99.90;;;;;;4989307;28;20133;-85
2022/05/14 05:26:51;;;;;;;1.38;1.27;;;10.40;99.90;;;;;;4961107;28;20033;-85
2022/05/14 05:29:17;;;;;;;2.30;1.05;;;10.70;99.90;;;;;;4974831;28;20041;-84
2022/05/14 05:31:43;;;;;;;2.05;1.40;;;11.00;99.90;;;;;;4997049;28;20034;-85
2022/05/14 05:34:09;;;;;;;3.25;1.50;;;11.40;99.90;;;;;;4999082;28;20030;-85
2022/05/14 05:36:34;;;;;;;1.52;1.35;;;11.80;99.90;;;;;;4964915;28;20030;-85
2022/05/14 05:39:00;;;;;;;1.50;1.23;;;12.20;99.50;;;;;;4996837;28;20034;-85
2022/05/14 05:41:26;;;;;;;3.00;1.60;;;12.60;98.40;;;;;;4969464;28;20034;-85
2022/05/14 05:43:52;;;;;;;4.07;1.67;;;13.20;97.90;;;;;;4994085;28;20110;-85
2022/05/14 05:46:18;;;;;;;1.35;1.25;;;13.60;97.60;;;;;;4970365;28;20141;-84
2022/05/14 05:48:44;;;;;;;2.50;1.90;;;13.90;97.70;;;;;;4949755;28;20057;-85
2022/05/14 05:51:10;;;;;;;1.90;1.70;;;14.20;97.30;;;;;;4925746;28;20550;-85
2022/05/14 05:59:06;;;;;;;2.28;1.45;;;14.90;96.90;;;;;;4977930;28;20069;-85
2022/05/14 06:01:32;;;;;;;3.83;1.60;;;15.30;95.90;;;;;;4998694;28;20038;-85
2022/05/14 06:03:57;;;;;;;2.90;1.92;;;15.50;94.20;;;;;;4984736;28;20489;-84
2022/05/14 06:06:24;;;;;;;2.15;1.40;;;15.80;93.20;;;;;;4988878;28;20026;-84
2022/05/14 06:08:50;;;;;;;3.67;2.00;;;16.00;92.00;;;;;;4995333;28;20034;-85
2022/05/14 06:11:17;;;;;;;3.55;2.00;;;16.30;91.80;;;;;;4986313;28;20030;-85
2022/05/14 06:13:44;;;;;;;2.47;1.83;;;16.50;92.40;;;;;;4960353;28;20125;-85
2022/05/14 06:16:11;;;;;;;2.55;1.85;;;16.70;90.50;;;;;;4960600;28;20030;-85
2022/05/14 06:18:40;;;;;;;2.45;1.60;;;16.90;90.10;;;;;;4985242;28;20404;-84
2022/05/14 06:21:06;;;;;;;3.35;1.52;;;17.10;90.90;;;;;;5003068;28;20034;-85
2022/05/14 06:23:32;;;;;;;6.32;1.90;;;17.50;90.90;;;;;;4976554;28;20035;-85
2022/05/14 06:25:58;;;;;;;9.38;4.15;;;17.90;88.10;;;;;;5000072;28;20026;-83
2022/05/14 06:28:24;;;;;;;2.40;2.05;;;18.00;87.10;;;;;;4960107;28;20038;-83
2022/05/14 06:30:50;;;;;;;11.77;6.53;;;18.20;86.40;;;;;;4961279;28;20084;-84
2022/05/14 06:33:17;;;;;;;3.38;1.98;;;18.50;85.50;;;;;;4989961;28;20038;-83
2022/05/14 06:35:44;;;;;;;3.33;1.40;;;18.80;84.80;;;;;;4989948;28;20046;-83
2022/05/14 06:38:10;;;;;;;2.42;1.73;;;19.10;83.80;;;;;;4977861;28;20555;-83
2022/05/14 06:40:39;;;;;;;2.28;1.60;;;19.40;83.50;;;;;;4996770;28;20029;-84
2022/05/14 06:43:06;;;;;;;5.28;1.83;;;19.50;77.70;;;;;;4961935;28;20030;-83
2022/05/14 06:45:32;;;;;;;3.38;1.60;;;19.60;75.60;;;;;;4976970;28;20544;-83
2022/05/14 06:47:58;;;;;;;1.77;1.60;;;19.70;76.80;;;;;;5007461;28;20120;-83
2022/05/14 06:50:26;;;;;;;6.15;2.22;;;20.00;77.20;;;;;;4973221;28;20049;-85
2022/05/14 06:52:57;;;;;;;1.92;1.35;;;20.30;78.50;;;;;;5000665;28;20527;-85
2022/05/14 06:55:28;;;;;;;13.73;7.03;;;20.60;72.50;;;;;;4962648;28;20484;-86
2022/05/14 06:57:55;;;;;;;1.73;1.60;;;20.70;72.20;;;;;;4988783;28;20035;-84
2022/05/14 07:00:21;;;;;;;4.22;1.75;;;20.80;70.90;;;;;;4992621;28;20037;-85
2022/05/14 07:02:49;;;;;;;1.48;1.30;;;21.00;73.50;;;;;;4977791;28;20097;-86
2022/05/14 07:08:00;;;;;;;4.75;2.00;;;21.50;67.50;;;;;;4999814;28;20038;-85
2022/05/14 07:10:26;;;;;;;2.47;1.52;;;21.50;67.70;;;;;;4983391;28;20038;-86
2022/05/14 07:12:52;;;;;;;2.22;1.30;;;21.70;69.40;;;;;;4969407;28;20102;-86
2022/05/14 07:15:19;;;;;;;3.63;1.60;;;21.90;65.40;;;;;;4955627;28;20062;-86
2022/05/14 07:17:44;;;;;;;4.53;1.50;;;22.10;68.80;;;;;;4976013;28;20077;-85
2022/05/14 07:20:10;;;;;;;3.33;1.38;;;22.20;66.00;;;;;;4979007;28;20498;-83
2022/05/14 07:22:36;;;;;;;1.65;1.40;;;22.40;64.80;;;;;;4951683;28;20049;-84
2022/05/14 07:25:03;;;;;;;3.22;1.52;;;22.40;63.90;;;;;;4961765;28;20117;-84
2022/05/14 07:27:29;;;;;;;2.65;1.52;;;22.40;64.20;;;;;;4993217;28;20041;-83
2022/05/14 07:29:55;;;;;;;4.75;1.80;;;22.50;62.40;;;;;;4984989;28;20037;-84
2022/05/14 07:32:21;;;;;;;3.10;1.52;;;22.50;63.40;;;;;;4981900;28;20027;-84
2022/05/14 07:34:47;;;;;;;5.20;2.50;;;22.60;62.30;;;;;;4977811;28;20077;-84
2022/05/14 07:37:19;;;;;;;3.92;1.98;;;22.20;63.10;;;;;;4961455;28;20057;-85
2022/05/14 07:39:51;;;;;;;3.33;1.55;;;22.20;67.50;;;;;;4997401;28;20019;-84
2022/05/14 07:42:46;;;;;;;3.53;1.60;;;22.30;61.60;;;;;;4979687;28;20018;-86
2022/05/14 07:45:18;;;;;;;2.40;1.40;;;22.60;60.00;;;;;;4974162;28;20043;-86
2022/05/14 07:47:44;;;;;;;3.00;1.50;;;22.80;61.90;;;;;;4993488;28;20038;-86
2022/05/14 07:50:09;;;;;;;1.85;1.50;;;22.90;59.40;;;;;;5000352;28;20045;-84
2022/05/14 07:52:36;;;;;;;1.70;1.05;;;23.00;60.40;;;;;;4974123;28;20121;-85
2022/05/14 07:55:03;;;;;;;2.67;1.15;;;23.30;61.30;;;;;;4961619;28;20097;-85
2022/05/14 07:57:29;;;;;;;3.65;1.05;;;23.70;61.10;;;;;;4997045;28;20031;-84
2022/05/14 07:59:55;;;;;;;2.67;1.33;;;24.00;59.70;;;;;;4977525;28;20088;-84
2022/05/14 08:02:26;;;;;;;2.00;1.30;;;24.20;57.30;;;;;;4968940;28;20041;-86
2022/05/14 08:04:53;;;;;;;3.15;1.50;;;24.10;56.10;;;;;;4980512;28;20030;-85
2022/05/14 08:07:19;;;;;;;2.85;1.35;;;23.60;56.10;;;;;;4991093;28;20034;-85
2022/05/14 08:09:45;;;;;;;5.22;1.17;;;22.90;55.80;;;;;;4973940;28;20027;-86
2022/05/14 08:12:12;;;;;;;1.75;0.95;;;22.60;57.50;;;;;;4986337;28;20503;-85
2022/05/14 08:14:42;;;;;;;2.38;1.15;;;22.40;57.70;;;;;;4972153;28;20250;-83
2022/05/14 08:17:11;;;;;;;3.40;0.98;;;22.30;57.00;;;;;;4987093;28;20042;-86
2022/05/14 08:19:37;;;;;;;3.20;1.58;;;21.90;58.70;;;;;;4975356;28;20379;-87
2022/05/14 08:24:48;;;;;;;4.00;1.40;;;21.50;63.70;;;;;;4986834;28;20026;-86
2022/05/14 08:27:14;;;;;;;2.15;1.10;;;21.50;61.10;;;;;;4992945;28;20033;-86
2022/05/14 08:29:43;;;;;;;2.35;1.02;;;21.60;61.60;;;;;;4973529;28;20026;-86
2022/05/14 08:32:09;;;;;;;3.05;1.08;;;21.60;63.10;;;;;;4967735;28;20021;-86
2022/05/14 08:34:34;;;;;;;2.72;1.23;;;21.50;60.80;;;;;;4997218;28;20081;-84
2022/05/14 08:37:00;;;;;;;3.97;1.20;;;21.40;62.90;;;;;;4995561;28;20041;-85
2022/05/14 08:39:28;;;;;;;3.72;1.13;;;21.40;62.00;;;;;;4983064;28;20498;-87
2022/05/14 08:41:55;;;;;;;5.97;1.17;;;21.20;62.20;;;;;;4964990;28;20034;-86
2022/05/14 08:44:24;;;;;;;2.58;1.10;;;21.00;63.60;;;;;;4974606;28;20038;-87
2022/05/14 08:47:07;;;;;;;1.42;0.88;;;20.90;64.80;;;;;;4929350;28;20421;-86
2022/05/14 08:49:37;;;;;;;1.83;1.20;;;20.90;64.80;;;;;;4974380;28;20028;-86
2022/05/14 08:52:10;;;;;;;1.27;1.00;;;20.90;63.40;;;;;;4981329;28;20468;-86
2022/05/14 08:54:36;;;;;;;3.75;1.63;;;20.90;66.20;;;;;;4958009;28;20378;-86
2022/05/14 08:57:11;;;;;;;2.35;1.02;;;20.90;64.20;;;;;;4960858;28;20034;-85
2022/05/14 08:59:55;;;;;;;0.82;0.80;;;20.90;65.60;;;;;;4970909;28;20485;-86
2022/05/14 09:02:44;;;;;;;2.33;1.30;;;21.00;64.20;;;;;;4983681;28;20048;-87
2022/05/14 09:05:13;;;;;;;2.80;1.20;;;21.10;66.90;;;;;;4996086;28;20042;-85
2022/05/14 09:07:39;;;;;;;2.15;1.08;;;20.90;64.00;;;;;;4969547;28;20580;-86
2022/05/14 09:10:08;;;;;;;2.05;1.00;;;20.90;63.70;;;;;;4993324;28;20032;-87
2022/05/14 09:12:37;;;;;;;0.95;0.70;;;20.70;63.90;;;;;;4970727;28;20073;-87
2022/05/14 09:15:12;;;;;;;1.42;0.98;;;20.70;64.50;;;;;;4969814;28;20512;-87
2022/05/14 09:17:41;;;;;;;3.05;1.00;;;20.70;64.30;;;;;;4955664;28;20026;-86
2022/05/14 09:20:07;;;;;;;1.60;0.60;;;20.70;59.80;;;;;;4994595;28;20033;-87
2022/05/14 09:22:52;;;;;;;3.95;0.70;;;20.70;62.20;;;;;;4982890;28;20030;-86
2022/05/14 09:25:26;;;;;;;1.60;0.80;;;20.90;60.00;;;;;;4996074;28;20054;-86
2022/05/14 09:27:59;;;;;;;1.33;0.82;;;21.00;60.90;;;;;;4996784;28;20064;-85
2022/05/14 09:30:37;;;;;;;0.90;0.75;;;21.00;62.70;;;;;;4992878;28;20031;-85
2022/05/14 09:33:04;;;;;;;2.63;1.00;;;21.20;64.10;;;;;;4995418;28;20381;-86
2022/05/14 09:35:35;;;;;;;3.75;0.90;;;21.30;64.80;;;;;;4993293;28;20117;-86
2022/05/14 09:38:18;;;;;;;5.18;0.80;;;21.40;64.60;;;;;;4977068;28;20053;-87
2022/05/14 09:40:44;;;;;;;0.90;0.80;;;21.30;57.20;;;;;;4973855;28;20484;-85
2022/05/14 09:43:10;;;;;;;0.98;0.82;;;21.30;60.80;;;;;;4985519;28;20098;-86
2022/05/14 09:45:39;;;;;;;1.25;0.60;;;21.20;59.20;;;;;;4983544;28;20030;-87
2022/05/14 09:48:10;;;;;;;1.00;0.77;;;21.20;62.60;;;;;;4952189;28;20026;-86
2022/05/14 09:50:36;;;;;;;1.98;0.60;;;21.20;61.40;;;;;;4975686;28;20565;-86
2022/05/14 09:53:05;;;;;;;3.50;1.00;;;21.30;64.00;;;;;;4957328;28;20126;-86
2022/05/14 09:55:57;;;;;;;2.80;0.82;;;21.30;60.90;;;;;;4997847;28;20034;-84
2022/05/14 09:58:34;;;;;;;1.15;0.70;;;21.40;61.60;;;;;;4984982;28;20035;-87
2022/05/14 10:01:08;;;;;;;0.93;0.70;;;21.40;63.60;;;;;;4969723;28;20019;-87
2022/05/14 10:04:10;;;;;;;1.98;0.70;;;21.60;64.20;;;;;;4987369;28;20121;-87
2022/05/14 10:06:52;;;;;;;3.85;0.95;;;21.70;61.20;;;;;;4980381;28;20050;-86
2022/05/14 10:09:47;;;;;;;0.80;0.75;;;21.80;62.60;;;;;;4992239;28;20066;-86
2022/05/14 10:12:44;;;;;;;2.97;0.80;;;21.80;59.80;;;;;;4967989;28;20105;-86
2022/05/14 10:15:29;;;;;;;2.88;0.70;;;21.80;63.80;;;;;;4961996;28;20128;-86
2022/05/14 10:18:13;;;;;;;3.03;0.73;;;21.80;63.00;;;;;;4972031;28;20034;-85
2022/05/14 10:20:57;;;;;;;2.47;0.77;;;21.90;60.10;;;;;;4965541;28;20386;-85
2022/05/14 10:27:06;;;;;;;2.97;1.20;;;21.90;58.80;;;;;;4981121;28;20022;-86
2022/05/14 10:29:32;;;;;;;2.75;0.80;;;21.80;58.50;;;;;;4978929;28;20276;-86
2022/05/14 10:32:05;;;;;;;3.42;0.80;;;21.80;61.70;;;;;;4981325;28;20092;-86
2022/05/14 10:35:15;;;;;;;4.63;0.85;;;21.90;62.90;;;;;;4961630;28;20045;-86
2022/05/14 10:37:48;;;;;;;2.15;0.80;;;21.90;57.20;;;;;;4968824;28;20037;-85
2022/05/14 10:40:19;;;;;;;2.05;1.08;;;22.00;59.20;;;;;;4989688;28;20068;-85
2022/05/14 10:42:52;;;;;;;2.15;0.70;;;22.00;58.50;;;;;;4973139;28;20030;-86
2022/05/14 10:45:25;;;;;;;0.60;0.60;;;22.10;58.90;;;;;;4971757;28;20041;-86
2022/05/14 10:48:03;;;;;;;3.38;0.70;;;22.20;62.90;;;;;;4995088;28;20532;-87
2022/05/14 10:50:31;;;;;;;1.88;0.43;;;22.30;59.10;;;;;;4984659;28;20138;-85
2022/05/14 10:52:58;;;;;;;1.88;0.55;;;22.30;56.60;;;;;;4946788;28;20069;-85
2022/05/14 10:55:35;;;;;;;2.47;0.80;;;22.30;57.90;;;;;;4993743;28;20125;-86
2022/05/14 10:58:07;;;;;;;1.60;0.93;;;22.20;58.90;;;;;;4971522;28;20030;-87
2022/05/14 11:00:43;;;;;;;1.25;0.50;;;22.20;59.90;;;;;;4964482;28;20107;-85
2022/05/14 11:03:14;;;;;;;;;;;22.30;60.40;;;;;;4972682;28;20022;-86
2022/05/14 11:06:02;;;;;;;2.10;0.50;;;22.40;61.00;;;;;;4978718;28;19920;-85
2022/05/14 11:08:44;;;;;;;1.75;0.40;;;22.50;56.80;;;;;;4990691;28;20045;-84
2022/05/14 11:11:14;;;;;;;0.50;0.40;;;22.60;57.80;;;;;;4993717;28;20744;-84
2022/05/14 11:13:40;;;;;;;1.95;0.50;;;22.70;57.10;;;;;;4976401;28;20026;-86
2022/05/14 11:16:12;;;;;;;1.33;0.50;;;22.80;56.70;;;;;;4959537;28;20037;-86
2022/05/14 11:18:53;;;;;;;2.45;0.60;;;22.90;57.30;;;;;;4956877;28;20492;-86
2022/05/14 11:21:32;;;;;;;1.42;0.50;;;22.90;56.90;;;;;;4993333;28;20064;-85
2022/05/14 11:24:00;;;;;;;1.48;0.70;;;23.00;56.30;;;;;;4976585;28;20037;-86
2022/05/14 11:26:27;;;;;;;2.92;0.73;;;23.00;56.40;;;;;;4975701;28;20128;-86
2022/05/14 11:29:10;;;;;;;4.55;0.65;;;23.00;55.00;;;;;;5000673;28;20604;-84
2022/05/14 11:31:39;;;;;;;0.98;0.60;;;22.90;54.70;;;;;;4990890;28;20346;-84
2022/05/14 11:34:26;;;;;;;0.40;0.40;;;22.90;54.00;;;;;;4999111;28;20042;-84
2022/05/14 11:36:55;;;;;;;2.25;0.50;;;23.00;55.50;;;;;;4979690;28;20029;-84
2022/05/14 11:39:24;;;;;;;1.85;0.80;;;23.10;55.30;;;;;;4991317;28;20476;-84
2022/05/14 11:41:52;;;;;;;1.65;0.75;;;22.90;51.60;;;;;;4987423;28;20031;-86
2022/05/14 11:44:40;;;;;;;0.70;0.55;;;22.90;54.40;;;;;;4971306;28;20042;-84
2022/05/14 11:47:28;;;;;;;2.60;0.73;;;22.90;56.00;;;;;;4989699;28;20030;-85
2022/05/14 11:49:55;;;;;;;0.80;0.55;;;22.90;54.10;;;;;;4994516;28;20389;-84
2022/05/14 11:52:35;;;;;;;0.70;0.50;;;22.80;52.80;;;;;;4975015;28;20034;-87
2022/05/14 11:55:23;;;;;;;1.30;0.65;;;22.90;57.00;;;;;;4988745;28;20030;-88
2022/05/14 11:57:57;;;;;;;2.55;0.70;;;23.20;56.30;;;;;;4972118;28;20182;-86
2022/05/14 12:00:29;;;;;;;1.60;0.73;;;23.30;55.70;;;;;;4994514;28;20099;-88
2022/05/14 12:03:14;;;;;;;2.03;0.85;;;23.50;51.90;;;;;;4978667;28;20034;-87
2022/05/14 12:06:11;;;;;;;1.48;0.57;;;23.50;55.10;;;;;;4985580;28;20097;-88
2022/05/14 12:09:08;;;;;;;1.65;0.50;;;23.60;55.00;;;;;;4993142;28;20042;-84
2022/05/14 12:12:20;;;;;;;1.77;0.68;;;23.70;52.50;;;;;;4967662;28;20039;-86
2022/05/14 12:14:46;;;;;;;2.85;0.65;;;23.80;50.40;;;;;;4962301;28;20038;-88
2022/05/14 12:17:19;;;;;;;1.10;0.60;;;23.80;52.80;;;;;;4959192;28;20531;-87
2022/05/14 12:19:53;;;;;;;0.77;0.50;;;24.00;54.90;;;;;;4972631;28;20037;-86
2022/05/14 12:22:25;;;;;;;4.35;0.70;;;24.30;52.50;;;;;;4968417;28;20031;-87
2022/05/14 12:25:05;;;;;;;1.55;0.55;;;24.60;54.60;;;;;;4956754;28;20502;-88
2022/05/14 12:27:32;;;;;;;5.25;1.00;;;24.70;48.50;;;;;;4962632;28;20038;-87
2022/05/14 12:30:03;;;;;;;1.25;0.52;;;24.60;51.60;;;;;;4991359;28;20035;-88
2022/05/14 12:35:24;;;;;;;4.00;0.70;;;24.80;52.20;;;;;;4996444;28;20033;-85
2022/05/14 12:37:55;;;;;;;2.23;0.80;;;25.00;50.40;;;;;;4976250;28;20665;-87
2022/05/14 12:40:50;;;;;;;1.33;0.52;;;25.30;50.40;;;;;;4967846;28;20034;-92
2022/05/14 12:43:16;;;;;;;1.88;0.60;;;25.40;51.00;;;;;;4952039;28;20046;-88
2022/05/14 12:45:45;;;;;;;0.98;0.60;;;25.60;48.90;;;;;;4968220;28;20124;-87
2022/05/14 12:48:13;;;;;;;2.25;0.60;;;25.60;49.80;;;;;;5007972;28;20017;-88
2022/05/14 12:50:49;;;;;;;1.85;0.68;;;25.70;47.20;;;;;;4972439;28;20034;-86
2022/05/14 12:53:15;;;;;;;1.67;0.60;;;25.70;46.90;;;;;;4955205;28;20038;-87
2022/05/14 12:55:49;;;;;;;3.38;0.77;;;25.70;44.40;;;;;;4938312;28;20060;-87
2022/05/14 12:58:19;;;;;;;1.52;0.70;;;25.50;46.60;;;;;;4969822;28;20045;-87
2022/05/14 13:00:47;;;;;;;1.65;0.50;;;25.40;48.70;;;;;;4988113;28;20023;-87
2022/05/14 13:03:20;;;;;;;3.10;0.75;;;25.40;49.60;;;;;;4971085;28;20692;-86
2022/05/14 13:06:04;;;;;;;1.23;0.63;;;25.60;49.90;;;;;;4973711;28;20477;-88
2022/05/14 13:08:31;;;;;;;0.73;0.70;;;25.80;47.40;;;;;;4990077;28;20539;-87
2022/05/14 13:11:12;;;;;;;1.90;0.80;;;25.90;50.00;;;;;;4977145;28;20034;-87
2022/05/14 13:13:44;;;;;;;2.72;0.80;;;26.20;47.80;;;;;;4955576;28;20101;-87
2022/05/14 13:16:17;;;;;;;1.55;0.65;;;26.70;46.90;;;;;;4973808;28;20028;-86
2022/05/14 13:18:50;;;;;;;1.70;0.82;;;27.00;46.30;;;;;;4967757;28;20146;-89
2022/05/14 13:21:20;;;;;;;2.80;0.85;;;27.20;48.20;;;;;;4984588;28;20074;-88
2022/05/14 13:23:59;;;;;;;0.70;0.60;;;27.10;45.80;;;;;;4979094;28;20101;-87
2022/05/14 13:26:44;;;;;;;1.38;1.05;;;27.10;44.70;;;;;;4991099;28;20088;-86
2022/05/14 13:29:17;;;;;;;3.33;0.70;;;27.00;47.00;;;;;;4973205;28;20400;-85